createdAt,value
2022-08-22T00:00:13.436Z,102285.56
2022-08-22T00:02:56.461Z,101571.06
2022-08-22T00:02:56.966Z,101403.31
2022-08-22T00:03:01.118Z,101598.81
2022-08-22T00:03:17.744Z,102290.28
2022-08-22T00:06:06.642Z,102291.47
2022-08-22T00:08:41.534Z,102297.13
2022-08-22T00:11:23.151Z,102291.41
2022-08-22T00:14:01.576Z,102298.59
2022-08-22T00:17:03.012Z,102306.16
2022-08-22T00:20:02.616Z,102333.94
2022-08-22T00:22:40.976Z,102334.88
2022-08-22T00:25:24.542Z,102335.84
2022-08-22T00:28:15.727Z,102342.13
2022-08-22T00:31:13.316Z,102342.44
2022-08-22T00:33:48.627Z,102349.81
2022-08-22T00:36:24.492Z,102352.38
2022-08-22T00:39:14.508Z,102369.25
2022-08-22T00:42:31.424Z,102370.97
2022-08-22T00:45:04.668Z,102370.56
2022-08-22T00:47:49.721Z,102367.34
2022-08-22T00:50:50.317Z,102371.91
2022-08-22T00:53:29.066Z,102368.44
2022-08-22T00:56:20.363Z,102366.56
2022-08-22T00:59:23.848Z,102369.94
2022-08-22T01:01:56.934Z,102376.06
2022-08-22T01:04:38.505Z,102379.91
2022-08-22T01:07:04.969Z,102383.66
2022-08-22T01:09:37.868Z,102386.22
2022-08-22T01:12:30.255Z,102395.13
2022-08-22T01:15:02.614Z,102392.16
2022-08-22T01:18:06.626Z,102386.34
2022-08-22T01:21:11.683Z,102385.97
2022-08-22T01:23:59.865Z,102395.31
2022-08-22T01:26:45.329Z,102404.13
2022-08-22T01:29:30.535Z,102406.00
2022-08-22T01:32:35.574Z,102413.47
2022-08-22T01:35:50.415Z,102409.53
2022-08-22T01:38:41.949Z,102413.16
2022-08-22T01:41:53.427Z,102412.47
2022-08-22T01:44:41.182Z,102408.34
2022-08-22T01:47:15.403Z,102410.75
2022-08-22T01:49:50.918Z,102413.56
2022-08-22T01:52:40.630Z,102419.66
2022-08-22T01:55:21.374Z,102419.03
2022-08-22T01:57:54.442Z,102428.84
2022-08-22T02:00:35.470Z,102425.94
2022-08-22T02:03:12.011Z,102431.59
2022-08-22T02:05:49.883Z,102419.34
2022-08-22T02:08:22.102Z,102417.16
2022-08-22T02:11:07.635Z,102408.34
2022-08-22T02:13:55.716Z,102409.78
2022-08-22T02:16:31.098Z,102400.03
2022-08-22T02:19:15.781Z,102415.91
2022-08-22T02:22:00.412Z,102406.94
2022-08-22T02:24:32.936Z,102413.31
2022-08-22T02:27:19.774Z,102392.34
2022-08-22T02:30:11.082Z,102399.69
2022-08-22T02:32:52.124Z,102403.72
2022-08-22T02:35:29.152Z,102417.59
2022-08-22T02:38:00.081Z,102422.81
2022-08-22T02:41:02.723Z,102415.13
2022-08-22T02:43:39.433Z,102421.97
2022-08-22T02:46:31.758Z,102426.16
2022-08-22T02:49:10.015Z,102425.63
2022-08-22T02:51:36.356Z,102423.34
2022-08-22T02:54:26.152Z,102414.75
2022-08-22T02:57:01.449Z,102420.88
2022-08-22T03:00:00.977Z,102417.34
2022-08-22T03:02:46.404Z,102410.53
2022-08-22T03:05:23.930Z,102416.28
2022-08-22T03:08:09.391Z,102412.38
2022-08-22T03:11:01.102Z,102426.66
2022-08-22T03:13:55.906Z,102417.25
2022-08-22T03:16:52.658Z,102413.72
2022-08-22T03:19:34.009Z,102414.00
2022-08-22T03:22:09.471Z,102406.31
2022-08-22T03:24:44.500Z,102413.53
2022-08-22T03:27:31.448Z,102427.81
2022-08-22T03:30:10.094Z,102437.63
2022-08-22T03:32:59.216Z,102435.97
2022-08-22T03:35:50.323Z,102444.91
2022-08-22T03:38:31.869Z,102442.22
2022-08-22T03:41:35.207Z,102446.91
2022-08-22T03:44:16.949Z,102449.13
2022-08-22T03:47:22.152Z,102447.91
2022-08-22T03:50:23.964Z,102447.69
2022-08-22T03:53:25.346Z,102451.03
2022-08-22T03:56:25.298Z,102455.91
2022-08-22T03:59:35.021Z,102451.50
2022-08-22T04:02:24.704Z,102451.38
2022-08-22T04:05:35.780Z,102445.25
2022-08-22T04:08:24.263Z,102458.34
2022-08-22T04:11:14.296Z,102453.41
2022-08-22T04:14:08.412Z,102448.09
2022-08-22T04:16:46.995Z,102446.22
2022-08-22T04:19:44.673Z,102450.63
2022-08-22T04:22:14.101Z,102441.69
2022-08-22T04:24:55.760Z,102440.19
2022-08-22T04:27:25.845Z,102432.25
2022-08-22T04:30:02.924Z,102441.03
2022-08-22T04:32:32.180Z,102437.59
2022-08-22T04:35:41.742Z,102428.59
2022-08-22T04:38:27.606Z,102426.50
2022-08-22T04:41:24.855Z,102425.91
2022-08-22T04:44:03.539Z,102433.72
2022-08-22T04:46:45.423Z,102433.56
2022-08-22T04:49:30.712Z,102429.09
2022-08-22T04:52:06.892Z,102433.44
2022-08-22T04:54:56.136Z,102435.16
2022-08-22T04:57:42.664Z,102435.94
2022-08-22T05:00:12.041Z,102408.13
2022-08-22T05:02:43.309Z,102390.13
2022-08-22T05:05:26.805Z,102393.53
2022-08-22T05:07:59.872Z,102395.13
2022-08-22T05:10:49.244Z,102408.94
2022-08-22T05:13:22.643Z,102401.28
2022-08-22T05:15:55.343Z,102411.97
2022-08-22T05:18:29.802Z,102412.69
2022-08-22T05:21:00.920Z,102438.06
2022-08-22T05:23:33.586Z,102428.63
2022-08-22T05:26:03.115Z,102423.88
2022-08-22T05:28:40.808Z,102423.34
2022-08-22T05:31:32.385Z,102429.53
2022-08-22T05:34:11.371Z,102422.72
2022-08-22T05:36:58.520Z,102427.53
2022-08-22T05:39:28.238Z,102427.00
2022-08-22T05:41:57.049Z,102423.78
2022-08-22T05:44:33.011Z,102425.94
2022-08-22T05:47:21.484Z,102434.44
2022-08-22T05:50:07.375Z,102433.72
2022-08-22T05:52:59.218Z,102447.59
2022-08-22T05:55:32.036Z,102454.72
2022-08-22T05:58:23.134Z,102465.50
2022-08-22T06:00:58.712Z,102479.34
2022-08-22T06:03:40.177Z,102500.84
2022-08-22T06:06:15.866Z,102511.56
2022-08-22T06:08:50.225Z,102524.03
2022-08-22T06:11:32.743Z,102530.38
2022-08-22T06:14:37.380Z,102552.75
2022-08-22T06:17:13.596Z,102552.41
2022-08-22T06:19:45.654Z,102568.13
2022-08-22T06:22:19.020Z,102569.53
2022-08-22T06:24:48.342Z,102575.75
2022-08-22T06:27:19.739Z,102565.88
2022-08-22T06:29:51.786Z,102572.09
2022-08-22T06:32:58.806Z,102567.84
2022-08-22T06:35:27.907Z,102557.19
2022-08-22T06:37:59.662Z,102547.44
2022-08-22T06:40:29.014Z,102538.53
2022-08-22T06:42:57.796Z,102521.50
2022-08-22T06:45:32.730Z,102508.09
2022-08-22T06:48:05.521Z,102507.72
2022-08-22T06:50:38.107Z,102494.06
2022-08-22T06:53:17.248Z,102482.53
2022-08-22T06:55:49.510Z,102474.59
2022-08-22T06:58:25.152Z,102453.03
2022-08-22T07:01:05.684Z,102425.75
2022-08-22T07:03:44.538Z,102419.00
2022-08-22T07:06:28.205Z,102393.16
2022-08-22T07:08:55.830Z,102399.50
2022-08-22T07:11:38.975Z,102386.28
2022-08-22T07:14:12.228Z,102355.84
2022-08-22T07:16:53.781Z,102339.84
2022-08-22T07:19:33.836Z,102310.22
2022-08-22T07:22:11.773Z,102282.25
2022-08-22T07:24:45.817Z,102239.72
2022-08-22T07:27:31.938Z,102207.50
2022-08-22T07:30:13.082Z,102158.47
2022-08-22T07:33:25.267Z,102113.13
2022-08-22T07:36:05.988Z,102042.72
2022-08-22T07:38:42.722Z,102011.69
2022-08-22T07:41:22.351Z,101975.53
2022-08-22T07:43:53.889Z,101896.47
2022-08-22T07:46:37.609Z,101858.22
2022-08-22T07:49:15.402Z,101818.09
2022-08-22T07:51:46.965Z,101777.19
2022-08-22T07:54:30.807Z,101760.53
2022-08-22T07:57:06.952Z,101739.09
2022-08-22T07:59:38.364Z,101721.69
2022-08-22T08:02:10.441Z,101728.09
2022-08-22T08:04:40.618Z,101730.31
2022-08-22T08:07:10.735Z,101729.19
2022-08-22T08:10:01.472Z,101733.84
2022-08-22T08:12:44.413Z,101724.09
2022-08-22T08:15:25.716Z,101726.50
2022-08-22T08:18:01.885Z,101733.59
2022-08-22T08:20:30.340Z,101747.81
2022-08-22T08:22:59.260Z,101753.88
2022-08-22T08:25:32.655Z,101737.31
2022-08-22T08:28:18.292Z,101741.00
2022-08-22T08:30:56.291Z,101743.25
2022-08-22T08:33:28.087Z,101756.56
2022-08-22T08:36:05.356Z,101753.97
2022-08-22T08:38:40.453Z,101767.91
2022-08-22T08:41:55.064Z,101762.34
2022-08-22T08:44:49.520Z,101750.66
2022-08-22T08:47:34.216Z,101759.16
2022-08-22T08:50:29.057Z,101754.81
2022-08-22T08:53:24.057Z,101744.91
2022-08-22T08:56:02.838Z,101752.19
2022-08-22T08:58:53.533Z,101756.97
2022-08-22T09:02:02.435Z,101759.34
2022-08-22T09:04:41.341Z,101728.34
2022-08-22T09:07:56.746Z,101712.25
2022-08-22T09:11:14.274Z,101740.41
2022-08-22T09:14:07.581Z,101756.72
2022-08-22T09:17:12.935Z,101762.66
2022-08-22T09:20:17.593Z,101759.34
2022-08-22T09:22:57.303Z,101767.00
2022-08-22T09:25:28.739Z,101748.69
2022-08-22T09:28:20.521Z,101754.63
2022-08-22T09:31:16.502Z,101763.28
2022-08-22T09:33:51.862Z,101773.53
2022-08-22T09:36:28.035Z,101767.91
2022-08-22T09:39:11.652Z,101767.06
2022-08-22T09:41:51.777Z,101760.63
2022-08-22T09:44:50.388Z,101752.47
2022-08-22T09:47:31.327Z,101746.00
2022-08-22T09:50:05.408Z,101780.28
2022-08-22T09:52:53.804Z,101797.53
2022-08-22T09:55:45.236Z,101812.09
2022-08-22T09:58:27.800Z,101821.66
2022-08-22T10:01:25.979Z,101819.66
2022-08-22T10:04:14.756Z,101819.75
2022-08-22T10:06:55.803Z,101820.22
2022-08-22T10:09:31.987Z,101823.88
2022-08-22T10:12:13.840Z,101822.53
2022-08-22T10:14:50.539Z,101828.28
2022-08-22T10:17:24.271Z,101833.56
2022-08-22T10:20:12.906Z,101823.59
2022-08-22T10:22:47.322Z,101815.66
2022-08-22T10:25:22.928Z,101806.84
2022-08-22T10:28:14.841Z,101797.16
2022-08-22T10:30:54.843Z,101802.28
2022-08-22T10:33:33.640Z,101803.03
2022-08-22T10:36:11.692Z,101795.59
2022-08-22T10:38:48.263Z,101804.56
2022-08-22T10:41:36.165Z,101793.13
2022-08-22T10:44:25.926Z,101791.91
2022-08-22T10:47:00.955Z,101775.50
2022-08-22T10:50:11.478Z,101775.16
2022-08-22T10:53:19.365Z,101777.59
2022-08-22T10:55:58.429Z,101761.94
2022-08-22T10:58:29.866Z,101765.88
2022-08-22T11:01:37.141Z,101788.94
2022-08-22T11:04:16.899Z,101794.38
2022-08-22T11:06:57.525Z,101786.28
2022-08-22T11:09:23.948Z,101793.44
2022-08-22T11:12:20.100Z,101775.69
2022-08-22T11:15:39.159Z,101770.97
2022-08-22T11:18:17.808Z,101768.50
2022-08-22T11:21:07.336Z,101762.75
2022-08-22T11:24:01.643Z,101758.16
2022-08-22T11:26:47.802Z,101780.59
2022-08-22T11:29:26.776Z,101834.78
2022-08-22T11:32:13.704Z,101893.34
2022-08-22T11:35:01.399Z,101907.63
2022-08-22T11:37:42.873Z,101908.66
2022-08-22T11:40:21.730Z,101895.13
2022-08-22T11:42:51.161Z,101882.94
2022-08-22T11:45:23.496Z,101842.63
2022-08-22T11:48:00.257Z,101866.13
2022-08-22T11:50:36.831Z,101882.50
2022-08-22T11:53:38.241Z,101876.50
2022-08-22T11:56:35.600Z,101860.31
2022-08-22T11:59:25.491Z,101823.13
2022-08-22T12:02:04.010Z,101774.56
2022-08-22T12:04:49.459Z,101787.94
2022-08-22T12:07:23.876Z,101734.06
2022-08-22T12:10:02.702Z,101620.28
2022-08-22T12:12:37.496Z,101536.75
2022-08-22T12:15:16.225Z,101514.09
2022-08-22T12:18:13.426Z,101427.84
2022-08-22T12:21:13.296Z,101441.41
2022-08-22T12:23:53.275Z,101447.03
2022-08-22T12:26:44.995Z,101400.88
2022-08-22T12:29:27.593Z,101361.28
2022-08-22T12:32:15.940Z,101319.38
2022-08-22T12:35:17.440Z,101216.66
2022-08-22T12:37:59.468Z,101249.75
2022-08-22T12:40:55.786Z,101262.72
2022-08-22T12:43:26.027Z,101351.25
2022-08-22T12:46:28.233Z,101462.06
2022-08-22T12:49:13.703Z,101367.31
2022-08-22T12:52:21.903Z,101208.00
2022-08-22T12:55:24.979Z,101282.78
2022-08-22T12:58:15.828Z,101316.56
2022-08-22T13:00:47.317Z,101431.50
2022-08-22T13:03:25.221Z,101420.16
2022-08-22T13:05:56.986Z,101384.41
2022-08-22T13:08:43.588Z,101423.81
2022-08-22T13:11:22.746Z,101390.56
2022-08-22T13:13:57.352Z,101425.75
2022-08-22T13:16:26.436Z,101470.13
2022-08-22T13:19:07.624Z,101489.13
2022-08-22T13:21:43.195Z,101586.97
2022-08-22T13:24:16.923Z,101646.97
2022-08-22T13:26:56.796Z,101665.59
2022-08-22T13:29:46.814Z,101697.09
2022-08-22T13:32:32.616Z,101710.81
2022-08-22T13:35:01.155Z,101739.94
2022-08-22T13:37:41.516Z,101770.81
2022-08-22T13:40:21.007Z,101642.91
2022-08-22T13:42:50.743Z,101525.69
2022-08-22T13:45:24.880Z,101369.78
2022-08-22T13:47:59.528Z,101262.16
2022-08-22T13:50:35.857Z,101385.41
2022-08-22T13:53:33.218Z,101596.75
2022-08-22T13:56:15.889Z,101691.81
2022-08-22T13:58:50.279Z,101710.38
2022-08-22T14:01:48.774Z,101770.69
2022-08-22T14:04:36.006Z,101759.41
2022-08-22T14:07:03.728Z,101775.25
2022-08-22T14:09:49.153Z,101763.66
2022-08-22T14:12:32.607Z,101779.97
2022-08-22T14:15:05.129Z,101723.22
2022-08-22T14:17:43.000Z,101602.38
2022-08-22T14:20:32.145Z,101451.88
2022-08-22T14:23:29.275Z,101389.50
2022-08-22T14:25:57.288Z,101374.31
2022-08-22T14:28:27.522Z,101305.16
2022-08-22T14:31:01.920Z,101146.34
2022-08-22T14:33:39.891Z,101090.59
2022-08-22T14:36:17.939Z,100936.31
2022-08-22T14:38:58.131Z,101051.00
2022-08-22T14:41:52.429Z,101090.47
2022-08-22T14:45:02.187Z,101111.69
2022-08-22T14:48:31.311Z,101076.53
2022-08-22T14:51:04.036Z,100929.84
2022-08-22T14:53:33.480Z,100991.53
2022-08-22T14:56:27.665Z,100903.22
2022-08-22T14:59:07.630Z,100797.94
2022-08-22T15:01:54.314Z,100794.47
2022-08-22T15:04:32.957Z,101005.06
2022-08-22T15:06:59.786Z,100946.00
2022-08-22T15:09:40.417Z,100949.38
2022-08-22T15:12:39.099Z,100935.97
2022-08-22T15:15:14.201Z,100982.09
2022-08-22T15:17:51.073Z,101087.13
2022-08-22T15:20:35.234Z,101141.06
2022-08-22T15:23:14.667Z,101215.19
2022-08-22T15:25:47.085Z,101234.59
2022-08-22T15:28:17.196Z,101165.97
2022-08-22T15:30:59.957Z,101125.44
2022-08-22T15:33:40.589Z,101038.31
2022-08-22T15:36:18.403Z,101177.66
2022-08-22T15:38:52.811Z,101309.63
2022-08-22T15:41:25.212Z,101402.16
2022-08-22T15:44:00.980Z,101322.75
2022-08-22T15:47:23.959Z,101315.56
2022-08-22T15:49:59.667Z,101288.03
2022-08-22T15:52:33.091Z,101304.38
2022-08-22T15:55:18.090Z,101262.56
2022-08-22T15:58:02.860Z,101201.75
2022-08-22T16:00:45.207Z,101155.78
2022-08-22T16:03:28.572Z,101078.63
2022-08-22T16:05:58.975Z,101054.34
2022-08-22T16:08:32.764Z,101063.41
2022-08-22T16:11:02.972Z,100984.72
2022-08-22T16:13:29.764Z,100994.06
2022-08-22T16:16:07.937Z,101105.69
2022-08-22T16:18:34.358Z,101164.00
2022-08-22T16:21:04.855Z,101204.66
2022-08-22T16:23:51.360Z,101324.03
2022-08-22T16:26:31.938Z,101435.75
2022-08-22T16:29:13.479Z,101496.53
2022-08-22T16:31:43.827Z,101527.75
2022-08-22T16:34:16.432Z,101495.09
2022-08-22T16:36:47.334Z,101464.66
2022-08-22T16:39:23.068Z,101397.34
2022-08-22T16:41:56.313Z,101385.97
2022-08-22T16:44:41.864Z,101460.13
2022-08-22T16:47:13.377Z,101621.31
2022-08-22T16:49:49.262Z,101710.69
2022-08-22T16:52:25.059Z,101737.13
2022-08-22T16:54:55.480Z,101739.91
2022-08-22T16:58:04.974Z,101761.78
2022-08-22T17:00:45.163Z,101801.97
2022-08-22T17:03:25.223Z,101830.75
2022-08-22T17:06:32.149Z,101858.31
2022-08-22T17:09:17.010Z,101872.53
2022-08-22T17:12:25.133Z,101869.50
2022-08-22T17:15:10.115Z,101872.63
2022-08-22T17:18:10.683Z,101876.78
2022-08-22T17:20:59.875Z,101860.34
2022-08-22T17:23:32.351Z,101851.34
2022-08-22T17:26:14.031Z,101848.09
2022-08-22T17:28:49.769Z,101833.97
2022-08-22T17:31:44.177Z,101801.81
2022-08-22T17:34:38.437Z,101774.97
2022-08-22T17:37:21.523Z,101786.88
2022-08-22T17:40:03.450Z,101777.38
2022-08-22T17:42:57.928Z,101764.91
2022-08-22T17:46:05.550Z,101775.31
2022-08-22T17:48:47.883Z,101804.88
2022-08-22T17:51:28.598Z,101826.09
2022-08-22T17:54:13.294Z,101838.13
2022-08-22T17:57:05.163Z,101866.88
2022-08-22T17:59:39.792Z,101872.59
2022-08-22T18:02:18.885Z,101878.38
2022-08-22T18:05:00.251Z,101881.47
2022-08-22T18:07:32.382Z,101886.19
2022-08-22T18:10:17.139Z,101891.59
2022-08-22T18:13:22.923Z,101891.75
2022-08-22T18:16:10.820Z,101884.03
2022-08-22T18:18:45.836Z,101889.38
2022-08-22T18:21:40.078Z,101884.22
2022-08-22T18:24:09.287Z,101872.66
2022-08-22T18:26:51.789Z,101859.16
2022-08-22T18:29:22.057Z,101850.91
2022-08-22T18:32:07.295Z,101853.56
2022-08-22T18:34:52.720Z,101848.81
2022-08-22T18:37:35.312Z,101839.63
2022-08-22T18:40:23.079Z,101840.31
2022-08-22T18:42:52.580Z,101831.41
2022-08-22T18:46:03.565Z,101799.13
2022-08-22T18:48:59.281Z,101767.00
2022-08-22T18:51:34.859Z,101742.97
2022-08-22T18:54:04.839Z,101715.22
2022-08-22T18:56:31.273Z,101686.97
2022-08-22T18:59:06.022Z,101663.16
2022-08-22T19:02:00.193Z,101634.75
2022-08-22T19:04:55.852Z,101604.28
2022-08-22T19:07:43.435Z,101587.59
2022-08-22T19:10:55.488Z,101584.75
2022-08-22T19:13:42.892Z,101581.03
2022-08-22T19:16:36.653Z,101572.66
2022-08-22T19:19:17.210Z,101571.34
2022-08-22T19:22:21.755Z,101567.66
2022-08-22T19:25:15.246Z,101563.88
2022-08-22T19:28:06.216Z,101551.56
2022-08-22T19:30:52.069Z,101541.19
2022-08-22T19:33:37.729Z,101539.16
2022-08-22T19:36:12.187Z,101528.47
2022-08-22T19:39:08.936Z,101519.41
2022-08-22T19:41:59.599Z,101521.63
2022-08-22T19:44:37.536Z,101511.94
2022-08-22T19:47:20.681Z,101494.06
2022-08-22T19:50:05.377Z,101481.91
2022-08-22T19:52:56.437Z,101477.41
2022-08-22T19:55:37.803Z,101468.84
2022-08-22T19:58:18.692Z,101453.13
2022-08-22T20:01:12.771Z,101450.16
2022-08-22T20:04:20.498Z,101442.53
2022-08-22T20:07:01.476Z,101433.72
2022-08-22T20:09:33.944Z,101423.81
2022-08-22T20:12:39.139Z,101415.88
2022-08-22T20:15:19.132Z,101393.09
2022-08-22T20:18:11.699Z,101386.97
2022-08-22T20:20:38.204Z,101387.22
2022-08-22T20:23:11.313Z,101379.75
2022-08-22T20:25:45.953Z,101369.09
2022-08-22T20:28:31.394Z,101360.91
2022-08-22T20:31:01.088Z,101353.28
2022-08-22T20:33:37.988Z,101343.63
2022-08-22T20:36:27.360Z,101339.94
2022-08-22T20:39:00.389Z,101330.59
2022-08-22T20:41:40.315Z,101326.34
2022-08-22T20:44:15.941Z,101319.84
2022-08-22T20:47:02.800Z,101313.75
2022-08-22T20:49:40.776Z,101302.88
2022-08-22T20:52:22.523Z,101312.75
2022-08-22T20:55:01.875Z,101283.34
2022-08-22T20:57:29.111Z,101285.03
2022-08-22T20:59:57.413Z,101280.47
2022-08-22T21:02:23.765Z,101265.22
2022-08-22T21:05:01.029Z,101260.41
2022-08-22T21:07:36.809Z,101253.75
2022-08-22T21:10:27.387Z,101241.88
2022-08-22T21:13:04.190Z,101238.31
2022-08-22T21:15:36.927Z,101231.97
2022-08-22T21:18:04.393Z,101236.50
2022-08-22T21:20:35.257Z,101235.50
2022-08-22T21:23:11.635Z,101243.16
2022-08-22T21:25:57.062Z,101248.50
2022-08-22T21:28:37.165Z,101252.47
2022-08-22T21:31:16.602Z,101248.25
2022-08-22T21:33:49.000Z,101246.56
2022-08-22T21:36:20.147Z,101259.00
2022-08-22T21:38:50.771Z,101251.34
2022-08-22T21:41:25.264Z,101258.28
2022-08-22T21:43:52.207Z,101262.09
2022-08-22T21:46:26.583Z,101269.06
2022-08-22T21:49:04.153Z,101276.53
2022-08-22T21:51:36.519Z,101283.47
2022-08-22T21:54:25.316Z,101290.41
2022-08-22T21:56:54.665Z,101292.81
2022-08-22T21:59:51.815Z,101303.13
2022-08-22T22:02:25.692Z,101313.78
2022-08-22T22:04:54.006Z,101303.03
2022-08-22T22:07:20.456Z,101323.84
2022-08-22T22:09:47.210Z,101314.09
2022-08-22T22:12:27.719Z,101318.03
2022-08-22T22:14:54.259Z,101320.34
2022-08-22T22:17:21.047Z,101320.47
2022-08-22T22:19:48.303Z,101328.41
2022-08-22T22:22:15.268Z,101337.16
2022-08-22T22:24:41.747Z,101340.97
2022-08-22T22:27:08.776Z,101340.00
2022-08-22T22:29:35.919Z,101346.06
2022-08-22T22:32:03.188Z,101336.84
2022-08-22T22:34:29.991Z,101348.31
2022-08-22T22:36:56.714Z,101356.13
2022-08-22T22:39:23.256Z,101347.34
2022-08-22T22:41:49.966Z,101362.75
2022-08-22T22:44:16.459Z,101359.25
2022-08-22T22:46:43.092Z,101355.53
2022-08-22T22:49:09.540Z,101366.84
2022-08-22T22:51:35.999Z,101372.69
2022-08-22T22:54:02.601Z,101377.78
2022-08-22T22:56:29.593Z,101389.47
2022-08-22T22:59:12.480Z,101395.50
2022-08-22T23:02:00.216Z,101397.00
2022-08-22T23:04:27.119Z,101410.50
2022-08-22T23:06:53.588Z,101407.91
2022-08-22T23:09:20.034Z,101413.47
2022-08-22T23:11:46.868Z,101412.59
2022-08-22T23:14:13.821Z,101411.56
2022-08-22T23:16:40.997Z,101402.50
2022-08-22T23:19:09.598Z,101408.44
2022-08-22T23:21:36.069Z,101414.78
2022-08-22T23:24:02.719Z,101413.88
2022-08-22T23:26:29.672Z,101412.41
2022-08-22T23:28:56.884Z,101418.66
2022-08-22T23:31:32.567Z,101410.03
2022-08-22T23:34:05.822Z,101401.66
2022-08-22T23:36:32.909Z,101406.97
2022-08-22T23:38:59.588Z,101390.38
2022-08-22T23:41:26.587Z,101393.19
2022-08-22T23:43:54.800Z,101383.84
2022-08-22T23:46:22.992Z,101380.91
2022-08-22T23:48:49.604Z,101375.38
2022-08-22T23:51:23.153Z,101386.97
2022-08-22T23:53:51.380Z,101386.78
2022-08-22T23:56:30.920Z,101376.00
2022-08-22T23:58:59.323Z,101381.31
